Esneux, Belgium
Current Conditions -  °F | °C
As of 1:20 PM on Sunday 23 Nov 2014 (Local Time) from EBLG Reporting Station
Clear Clear  
Wind Chill: 15°   Ceiling: Unl
Heat Index: 15°   Visibility: 6mi
Dew Point:   Wind: 14mph
Humidity: 67%   Direction: 180°S
Pressure: 30"   Gusts: NA
Location:  50.54°N, 5.57°E
Report Text: EBLG 231220Z 18012KT CAVOK 15/09 Q1016 NOSIG
Loading
Personal Weather Stations






























Interactive Weather Map New forecast layout! Learn more

10-Day Weather Forecast

Advertisements
Track Severe Weather on mobile